Time;durP1;ratioP1;P1;durP2;ratioP2;P2;SDS_P1;SDS_P2;PMS_P1;PMS_P2;Temp;Humidity;BMP_temperature;BMP_pressure;BME280_temperature;BME280_humidity;BME280_pressure;Samples;Min_cycle;Max_cycle;Signal;HPM_P1;HPM_P2
2021/01/21 00:02:08;;;;;;;1.27;0.38;;;11.00;99.90;;;;;;10364528;28;20045;-53
2021/01/21 00:07:29;;;;;;;1.88;0.40;;;11.10;99.90;;;;;;10361403;28;20081;-53
2021/01/21 00:12:51;;;;;;;2.47;0.68;;;11.20;99.90;;;;;;10363301;28;20041;-53
2021/01/21 00:18:12;;;;;;;1.42;0.30;;;11.20;99.90;;;;;;10362351;28;20509;-52
2021/01/21 00:23:33;;;;;;;0.77;0.55;;;11.10;99.90;;;;;;10364890;28;20490;-52
2021/01/21 00:28:54;;;;;;;2.15;0.82;;;11.20;99.90;;;;;;10366952;28;20046;-52
2021/01/21 00:34:15;;;;;;;1.13;0.60;;;11.30;99.90;;;;;;10364084;28;20063;-53
2021/01/21 00:39:36;;;;;;;0.73;0.25;;;11.20;99.90;;;;;;10361258;28;20042;-52
2021/01/21 00:44:57;;;;;;;0.80;0.32;;;11.20;99.90;;;;;;10364598;28;20045;-53
2021/01/21 00:50:18;;;;;;;0.55;0.28;;;11.20;99.90;;;;;;10363221;28;20081;-52
2021/01/21 00:55:39;;;;;;;4.03;0.60;;;11.30;99.90;;;;;;10363403;28;20041;-52
2021/01/21 01:01:00;;;;;;;0.70;0.20;;;11.20;99.90;;;;;;10359756;28;20044;-53
2021/01/21 01:06:21;;;;;;;1.20;0.30;;;10.90;99.90;;;;;;10361893;28;20597;-54
2021/01/21 01:11:42;;;;;;;2.28;0.38;;;10.40;99.90;;;;;;10361534;28;20050;-53
2021/01/21 01:17:03;;;;;;;0.75;0.30;;;10.20;99.90;;;;;;10359641;28;20045;-53
2021/01/21 01:22:24;;;;;;;0.45;0.10;;;10.20;99.90;;;;;;10360892;28;20047;-53
2021/01/21 01:27:45;;;;;;;1.08;0.28;;;10.10;99.90;;;;;;10360970;28;20048;-53
2021/01/21 01:33:06;;;;;;;1.73;0.20;;;10.20;99.90;;;;;;10359511;28;20508;-53
2021/01/21 01:38:27;;;;;;;0.90;0.30;;;10.30;99.90;;;;;;10358370;28;21034;-53
2021/01/21 01:43:49;;;;;;;0.68;0.30;;;10.40;99.90;;;;;;10359769;28;20804;-53
2021/01/21 01:49:10;;;;;;;0.60;0.25;;;10.60;99.90;;;;;;10363368;28;20049;-53
2021/01/21 01:54:31;;;;;;;0.60;0.22;;;10.70;99.90;;;;;;10361199;28;20440;-53
2021/01/21 01:59:57;;;;;;;0.70;0.30;;;10.80;99.90;;;;;;10364604;28;20065;-53
2021/01/21 02:05:21;;;;;;;0.55;0.20;;;10.70;99.90;;;;;;10362278;28;20470;-53
2021/01/21 02:10:45;;;;;;;1.23;0.60;;;10.70;99.90;;;;;;10360714;28;20053;-53
2021/01/21 02:16:13;;;;;;;2.17;0.40;;;11.00;99.90;;;;;;10364179;28;20037;-54
2021/01/21 02:22:11;;;;;;;0.85;0.28;;;11.20;99.90;;;;;;10361982;28;20508;-53
2021/01/21 02:27:57;;;;;;;1.38;0.17;;;11.30;99.90;;;;;;10364982;28;20538;-53
2021/01/21 02:33:54;;;;;;;1.08;0.38;;;11.30;99.90;;;;;;10367959;28;20050;-52
2021/01/21 02:39:16;;;;;;;0.30;0.13;;;11.40;99.90;;;;;;10364850;28;20108;-53
2021/01/21 02:44:37;;;;;;;0.88;0.25;;;11.60;99.90;;;;;;10366101;28;20065;-54
2021/01/21 02:49:58;;;;;;;0.15;0.10;;;11.60;99.90;;;;;;10368100;28;20047;-53
2021/01/21 02:55:24;;;;;;;0.35;0.17;;;11.50;99.90;;;;;;10365431;28;20073;-52
2021/01/21 03:00:49;;;;;;;1.40;0.40;;;11.40;99.90;;;;;;10367403;28;20191;-53
2021/01/21 03:06:13;;;;;;;1.30;0.40;;;11.10;99.90;;;;;;10368577;28;20042;-52
2021/01/21 03:11:34;;;;;;;1.10;0.38;;;10.90;99.90;;;;;;10367595;28;20959;-52
2021/01/21 03:16:57;;;;;;;0.47;0.20;;;10.70;99.90;;;;;;10363892;28;20424;-52
2021/01/21 03:22:19;;;;;;;0.68;0.20;;;10.60;99.90;;;;;;10369745;28;20056;-53
2021/01/21 03:27:40;;;;;;;0.93;0.20;;;10.30;99.90;;;;;;10368743;28;20084;-53
2021/01/21 03:33:01;;;;;;;0.60;0.20;;;10.10;99.90;;;;;;10366229;28;20505;-53
2021/01/21 03:38:22;;;;;;;0.52;0.25;;;10.00;99.90;;;;;;10364300;28;20053;-53
2021/01/21 03:43:43;;;;;;;0.88;0.30;;;9.90;99.90;;;;;;10366764;28;20560;-56
2021/01/21 03:49:04;;;;;;;0.75;0.10;;;8.70;99.90;;;;;;10369815;28;20054;-55
2021/01/21 03:54:25;;;;;;;4.05;0.75;;;7.40;99.90;;;;;;10367590;28;20223;-54
2021/01/21 03:59:46;;;;;;;7.22;0.30;;;7.00;99.90;;;;;;10361601;28;20721;-53
2021/01/21 04:05:07;;;;;;;0.38;0.13;;;6.80;99.90;;;;;;10363408;28;20065;-54
2021/01/21 04:10:28;;;;;;;1.65;0.10;;;6.90;99.90;;;;;;10373310;28;20033;-54
2021/01/21 04:15:49;;;;;;;0.15;0.05;;;7.00;99.90;;;;;;10364939;28;20026;-55
2021/01/21 04:21:10;;;;;;;0.47;0.10;;;7.30;99.90;;;;;;10365298;28;20033;-54
2021/01/21 04:26:31;;;;;;;1.58;0.10;;;7.20;99.90;;;;;;10361868;28;20497;-54
2021/01/21 04:31:52;;;;;;;0.40;0.20;;;7.30;99.90;;;;;;10361994;28;20041;-54
2021/01/21 04:37:13;;;;;;;0.32;0.10;;;7.40;99.90;;;;;;10369050;28;20263;-53
2021/01/21 04:42:34;;;;;;;1.35;0.40;;;7.60;99.90;;;;;;10364492;28;20524;-53
2021/01/21 04:47:56;;;;;;;6.03;0.95;;;7.60;99.90;;;;;;10367231;28;20609;-53
2021/01/21 04:53:21;;;;;;;9.63;1.48;;;7.60;99.90;;;;;;10362565;28;22304;-53
2021/01/21 04:58:51;;;;;;;11.27;0.88;;;7.80;99.90;;;;;;10362839;28;20041;-54
2021/01/21 05:04:12;;;;;;;0.65;0.30;;;7.80;99.90;;;;;;10360008;28;20046;-54
2021/01/21 05:09:35;;;;;;;4.05;0.80;;;7.80;99.90;;;;;;10362617;28;20089;-53
2021/01/21 05:14:56;;;;;;;3.30;0.28;;;7.70;99.90;;;;;;10365909;28;20029;-53
2021/01/21 05:20:22;;;;;;;2.90;0.55;;;7.70;99.90;;;;;;10377123;28;20096;-53
2021/01/21 05:25:45;;;;;;;1.83;0.30;;;7.60;99.90;;;;;;10360737;28;20052;-53
2021/01/21 05:31:06;;;;;;;1.02;0.30;;;7.50;99.90;;;;;;10364710;28;20108;-54
2021/01/21 05:36:27;;;;;;;4.32;0.20;;;7.40;99.90;;;;;;10363505;28;20034;-53
2021/01/21 05:41:48;;;;;;;1.00;0.32;;;7.30;99.90;;;;;;10366257;28;20207;-53
2021/01/21 05:47:11;;;;;;;3.90;0.75;;;7.30;99.90;;;;;;10363577;28;20045;-53
2021/01/21 05:52:35;;;;;;;0.38;0.20;;;7.30;99.90;;;;;;10373768;28;20498;-53
2021/01/21 05:57:57;;;;;;;1.58;0.30;;;7.30;99.90;;;;;;10367174;28;20125;-53
2021/01/21 06:03:18;;;;;;;0.22;0.08;;;7.30;99.90;;;;;;10371865;28;20045;-53
2021/01/21 06:08:41;;;;;;;0.95;0.20;;;7.30;99.90;;;;;;10372752;28;20037;-52
2021/01/21 06:14:02;;;;;;;3.90;0.40;;;7.20;99.90;;;;;;10366749;28;20038;-53
2021/01/21 06:19:23;;;;;;;4.03;0.25;;;7.10;99.90;;;;;;10371709;28;20501;-53
2021/01/21 06:24:48;;;;;;;2.58;0.40;;;6.90;99.90;;;;;;10367471;28;20140;-53
2021/01/21 06:30:14;;;;;;;0.50;0.10;;;6.80;99.90;;;;;;10372277;28;20030;-53
2021/01/21 06:35:40;;;;;;;1.75;0.20;;;6.90;99.90;;;;;;10371569;28;20061;-52
2021/01/21 06:41:02;;;;;;;0.05;0.03;;;6.90;99.90;;;;;;10366292;28;20034;-53
2021/01/21 06:46:24;;;;;;;8.88;0.35;;;6.80;99.90;;;;;;10370537;28;20504;-52
2021/01/21 06:51:49;;;;;;;1.20;0.10;;;6.80;99.90;;;;;;10370497;28;20053;-52
2021/01/21 06:57:35;;;;;;;0.90;0.40;;;6.70;99.90;;;;;;10370359;28;20084;-52
2021/01/21 07:02:56;;;;;;;0.55;0.25;;;6.70;99.90;;;;;;10368322;28;20054;-53
2021/01/21 07:08:17;;;;;;;2.28;0.17;;;6.60;99.90;;;;;;10366415;28;20031;-53
2021/01/21 07:13:39;;;;;;;0.77;0.30;;;6.40;99.90;;;;;;10368637;28;20176;-53
2021/01/21 07:19:01;;;;;;;0.75;0.20;;;6.40;99.90;;;;;;10383327;28;20066;-52
2021/01/21 07:24:23;;;;;;;2.88;0.30;;;6.20;99.90;;;;;;10367295;28;20034;-52
2021/01/21 07:29:44;;;;;;;1.48;0.65;;;6.20;99.90;;;;;;10366504;28;20056;-53
2021/01/21 07:35:05;;;;;;;1.30;0.32;;;6.10;99.90;;;;;;10379723;28;20040;-52
2021/01/21 07:40:42;;;;;;;0.20;0.00;;;6.00;99.90;;;;;;10368271;28;20748;-53
2021/01/21 07:46:22;;;;;;;0.17;0.05;;;5.90;99.90;;;;;;10367139;28;20683;-52
2021/01/21 07:51:43;;;;;;;2.45;0.95;;;5.90;99.90;;;;;;10369231;28;20101;-52
2021/01/21 07:57:04;;;;;;;1.67;0.25;;;5.90;99.90;;;;;;10370319;28;20048;-52
2021/01/21 08:02:44;;;;;;;0.28;0.00;;;6.00;99.90;;;;;;10371677;28;20378;-52
2021/01/21 08:08:06;;;;;;;8.25;0.40;;;5.90;99.90;;;;;;10366149;28;20472;-52
2021/01/21 08:13:27;;;;;;;0.70;0.40;;;5.90;99.90;;;;;;10365001;28;20034;-53
2021/01/21 08:18:48;;;;;;;1.83;0.80;;;5.90;99.90;;;;;;10367484;28;20153;-54
2021/01/21 08:24:09;;;;;;;0.40;0.22;;;5.90;99.90;;;;;;10369950;28;20052;-55
2021/01/21 08:29:30;;;;;;;1.05;0.73;;;5.80;99.90;;;;;;10368088;28;20057;-53
2021/01/21 08:34:52;;;;;;;0.98;0.43;;;5.80;99.90;;;;;;10370616;28;20037;-53
2021/01/21 08:40:13;;;;;;;0.30;0.15;;;5.90;99.90;;;;;;10367890;28;20041;-52
2021/01/21 08:45:35;;;;;;;1.83;0.55;;;6.00;99.90;;;;;;10367474;28;20053;-52
2021/01/21 08:50:57;;;;;;;1.80;0.65;;;6.00;99.90;;;;;;10367477;28;20054;-52
2021/01/21 08:56:18;;;;;;;1.95;0.45;;;6.10;99.90;;;;;;10366100;28;20037;-53
2021/01/21 09:01:43;;;;;;;0.28;0.05;;;6.20;99.90;;;;;;10367226;28;20393;-52
2021/01/21 09:07:09;;;;;;;5.40;1.00;;;6.40;99.90;;;;;;10364518;28;20046;-53
2021/01/21 09:12:30;;;;;;;1.08;0.82;;;6.60;99.90;;;;;;10366087;28;20121;-53
2021/01/21 09:18:05;;;;;;;1.73;0.60;;;6.80;99.90;;;;;;10365062;28;20112;-52
2021/01/21 09:23:26;;;;;;;2.63;0.30;;;7.00;99.90;;;;;;10368484;28;20049;-52
2021/01/21 09:28:55;;;;;;;2.42;0.82;;;7.20;99.90;;;;;;10363926;28;20417;-52
2021/01/21 09:34:16;;;;;;;2.67;0.85;;;7.40;99.90;;;;;;10368607;28;20041;-55
2021/01/21 09:39:38;;;;;;;1.90;0.40;;;7.40;99.90;;;;;;10365348;28;20117;-54
2021/01/21 09:44:59;;;;;;;0.60;0.17;;;7.20;99.90;;;;;;10366753;28;20072;-54
2021/01/21 09:50:22;;;;;;;6.10;1.02;;;7.20;99.90;;;;;;10364082;28;20041;-52
2021/01/21 09:55:43;;;;;;;6.93;0.40;;;7.20;99.90;;;;;;10366394;28;20030;-54
2021/01/21 10:01:04;;;;;;;1.55;0.70;;;7.60;99.90;;;;;;10364682;28;20053;-54
2021/01/21 10:06:25;;;;;;;1.05;0.40;;;7.70;99.90;;;;;;10368111;28;20132;-54
2021/01/21 10:11:46;;;;;;;1.65;0.38;;;7.70;99.90;;;;;;10365177;28;20046;-54
2021/01/21 10:17:07;;;;;;;1.15;0.50;;;7.90;99.90;;;;;;10378066;28;20856;-54
2021/01/21 10:22:28;;;;;;;2.20;0.20;;;8.00;99.90;;;;;;10367314;28;20054;-54
2021/01/21 10:27:49;;;;;;;0.38;0.15;;;7.80;99.90;;;;;;10363575;28;20045;-54
2021/01/21 10:33:10;;;;;;;0.82;0.13;;;8.10;99.90;;;;;;10365927;28;20029;-54
2021/01/21 10:38:32;;;;;;;3.90;1.00;;;8.10;99.90;;;;;;10367882;28;20037;-52
2021/01/21 10:43:53;;;;;;;3.03;0.28;;;8.30;99.90;;;;;;10364621;28;20045;-52
2021/01/21 10:49:14;;;;;;;0.65;0.10;;;8.30;99.90;;;;;;10377227;28;20053;-52
2021/01/21 10:54:35;;;;;;;1.65;0.20;;;8.20;99.90;;;;;;10376724;28;20509;-52
2021/01/21 10:59:56;;;;;;;5.00;0.40;;;8.00;99.90;;;;;;10373871;28;20188;-54
2021/01/21 11:05:17;;;;;;;3.30;0.28;;;8.10;99.90;;;;;;10371932;28;20053;-54
2021/01/21 11:10:39;;;;;;;0.15;0.15;;;8.00;99.90;;;;;;10382117;28;20052;-54
2021/01/21 11:16:00;;;;;;;2.10;0.22;;;8.40;99.90;;;;;;10368162;28;20026;-54
2021/01/21 11:21:22;;;;;;;1.05;0.40;;;8.40;99.90;;;;;;10367725;28;20030;-54
2021/01/21 11:26:43;;;;;;;7.72;0.22;;;8.60;99.90;;;;;;10367538;28;20081;-54
2021/01/21 11:32:04;;;;;;;3.75;0.20;;;8.30;99.90;;;;;;10366991;28;20042;-54
2021/01/21 11:37:25;;;;;;;0.22;0.10;;;8.10;99.90;;;;;;10370248;28;20030;-52
2021/01/21 11:42:46;;;;;;;1.77;0.38;;;8.10;99.90;;;;;;10380073;28;20030;-52
2021/01/21 11:48:07;;;;;;;1.65;0.60;;;8.30;99.90;;;;;;10373384;28;20131;-53
2021/01/21 11:53:28;;;;;;;1.08;0.45;;;8.30;99.90;;;;;;10383046;28;20034;-52
2021/01/21 11:58:49;;;;;;;1.45;0.63;;;8.80;99.90;;;;;;10365230;28;20041;-52
2021/01/21 12:04:10;;;;;;;1.38;0.60;;;8.80;99.90;;;;;;10368289;28;20042;-53
2021/01/21 12:09:31;;;;;;;1.10;0.30;;;8.60;99.90;;;;;;10368286;28;20088;-54
2021/01/21 12:14:52;;;;;;;1.17;0.20;;;8.70;99.90;;;;;;10371772;28;20044;-54
2021/01/21 12:20:14;;;;;;;0.95;0.40;;;8.60;99.90;;;;;;10371734;28;20145;-53
2021/01/21 12:25:35;;;;;;;0.98;0.32;;;8.90;99.90;;;;;;10369420;28;20083;-53
2021/01/21 12:30:56;;;;;;;1.35;0.60;;;8.70;99.90;;;;;;10368674;28;20052;-52
2021/01/21 12:36:17;;;;;;;0.60;0.20;;;8.60;99.90;;;;;;10368732;28;20057;-54
2021/01/21 12:41:38;;;;;;;1.13;0.30;;;8.70;99.90;;;;;;10366991;28;20041;-54
2021/01/21 12:46:59;;;;;;;1.02;0.40;;;8.60;99.90;;;;;;10369443;28;20546;-54
2021/01/21 12:52:21;;;;;;;0.60;0.20;;;8.40;99.90;;;;;;10366766;28;20050;-54
2021/01/21 12:57:42;;;;;;;1.08;0.57;;;8.30;99.90;;;;;;10364904;28;20034;-54
2021/01/21 13:03:03;;;;;;;2.17;0.15;;;8.20;99.90;;;;;;10364588;28;20188;-54
2021/01/21 13:08:25;;;;;;;1.83;0.40;;;8.30;99.90;;;;;;10365482;28;20363;-54
2021/01/21 13:13:47;;;;;;;1.52;0.52;;;8.50;99.90;;;;;;10369930;28;20095;-54
2021/01/21 13:19:08;;;;;;;0.68;0.22;;;8.60;99.90;;;;;;10367629;28;20041;-54
2021/01/21 13:24:29;;;;;;;1.90;0.57;;;8.60;99.90;;;;;;10365499;28;20041;-52
2021/01/21 13:29:50;;;;;;;0.50;0.10;;;9.20;99.90;;;;;;10366600;28;20028;-53
2021/01/21 13:35:12;;;;;;;1.45;0.38;;;8.90;99.90;;;;;;10363874;28;20030;-52
2021/01/21 13:40:33;;;;;;;0.88;0.25;;;8.90;99.90;;;;;;10366042;28;20104;-54
2021/01/21 13:45:54;;;;;;;2.53;0.45;;;8.70;99.90;;;;;;10362881;28;20049;-54
2021/01/21 13:51:15;;;;;;;3.53;0.45;;;9.00;99.90;;;;;;10371700;28;20075;-52
2021/01/21 13:56:38;;;;;;;1.30;0.95;;;9.40;99.90;;;;;;10365121;28;20068;-52
2021/01/21 14:01:59;;;;;;;0.90;0.22;;;9.70;99.90;;;;;;10367058;28;20670;-52
2021/01/21 14:07:20;;;;;;;1.45;0.40;;;8.90;99.90;;;;;;10365167;28;20046;-52
2021/01/21 14:12:42;;;;;;;7.20;0.60;;;8.80;99.90;;;;;;10366883;28;20037;-52
2021/01/21 14:18:03;;;;;;;0.80;0.20;;;8.70;99.90;;;;;;10367839;28;21179;-52
2021/01/21 14:23:24;;;;;;;2.58;0.20;;;8.50;99.90;;;;;;10374823;28;20034;-52
2021/01/21 14:28:45;;;;;;;0.20;0.10;;;8.60;99.90;;;;;;10370416;28;20044;-54
2021/01/21 14:34:06;;;;;;;0.85;0.20;;;8.70;99.90;;;;;;10372025;28;20456;-54
2021/01/21 14:39:27;;;;;;;2.40;0.50;;;8.90;99.90;;;;;;10373362;28;20970;-52
2021/01/21 14:44:48;;;;;;;1.35;0.20;;;8.80;99.90;;;;;;10373530;28;20136;-52
2021/01/21 14:50:10;;;;;;;1.45;0.20;;;8.50;99.90;;;;;;10372724;28;20156;-52
2021/01/21 14:55:31;;;;;;;5.80;0.95;;;8.50;99.90;;;;;;10373271;28;20122;-52
2021/01/21 15:00:52;;;;;;;0.55;0.50;;;8.60;99.90;;;;;;10368083;28;20049;-52
2021/01/21 15:06:13;;;;;;;7.18;0.32;;;8.50;99.90;;;;;;10376592;28;20046;-52
2021/01/21 15:11:34;;;;;;;5.10;1.48;;;8.40;99.90;;;;;;10368122;28;20038;-52
2021/01/21 15:16:55;;;;;;;0.28;0.10;;;8.20;99.90;;;;;;10372858;28;20567;-52
2021/01/21 15:22:16;;;;;;;0.75;0.20;;;8.10;99.90;;;;;;10371589;28;20041;-52
2021/01/21 15:27:37;;;;;;;0.60;0.43;;;8.10;99.90;;;;;;10370077;28;20061;-54
2021/01/21 15:32:58;;;;;;;0.90;0.40;;;8.00;99.90;;;;;;10380057;28;20041;-54
2021/01/21 15:38:19;;;;;;;0.45;0.15;;;8.20;99.90;;;;;;10369814;28;20095;-54
2021/01/21 15:43:40;;;;;;;9.50;1.10;;;8.00;99.90;;;;;;10367972;28;20045;-54
2021/01/21 15:49:02;;;;;;;1.38;0.15;;;7.90;99.90;;;;;;10369027;28;20045;-54
2021/01/21 15:54:25;;;;;;;1.15;0.80;;;7.90;99.90;;;;;;10367907;28;20033;-54
2021/01/21 15:59:46;;;;;;;6.80;0.52;;;7.90;99.90;;;;;;10366435;28;20030;-52
2021/01/21 16:05:09;;;;;;;3.35;0.30;;;7.90;99.90;;;;;;10370479;28;20092;-54
2021/01/21 16:10:29;;;;;;;1.30;0.40;;;7.80;99.90;;;;;;10365680;28;20048;-54
2021/01/21 16:15:50;;;;;;;0.88;0.25;;;7.80;99.90;;;;;;10369223;28;20520;-54
2021/01/21 16:21:11;;;;;;;5.55;0.38;;;7.80;99.90;;;;;;10366848;28;20475;-54
2021/01/21 16:26:34;;;;;;;7.97;0.50;;;7.80;99.90;;;;;;10369222;28;20488;-54
2021/01/21 16:31:55;;;;;;;0.85;0.28;;;7.70;99.90;;;;;;10369139;28;20044;-54
2021/01/21 16:37:17;;;;;;;0.80;0.55;;;7.70;99.90;;;;;;10373219;28;20034;-54
2021/01/21 16:42:38;;;;;;;0.73;0.30;;;7.70;99.90;;;;;;10369048;28;20132;-54
2021/01/21 16:47:59;;;;;;;2.22;0.68;;;7.60;99.90;;;;;;10366044;28;20583;-54
2021/01/21 16:53:20;;;;;;;0.30;0.13;;;7.60;99.90;;;;;;10367087;28;20034;-54
2021/01/21 16:58:41;;;;;;;1.40;0.20;;;7.70;99.90;;;;;;10365501;28;20034;-52
2021/01/21 17:04:02;;;;;;;0.68;0.17;;;7.70;99.90;;;;;;10362388;28;20049;-54
2021/01/21 17:09:23;;;;;;;5.80;0.40;;;7.70;99.90;;;;;;10363207;28;20038;-54
2021/01/21 17:14:45;;;;;;;0.98;0.47;;;7.70;99.90;;;;;;10361707;28;20384;-52
2021/01/21 17:20:07;;;;;;;0.75;0.30;;;7.70;99.90;;;;;;10365449;28;20060;-54
2021/01/21 17:25:28;;;;;;;1.30;0.47;;;7.80;99.90;;;;;;10364843;28;20054;-54
2021/01/21 17:30:49;;;;;;;1.00;0.40;;;7.80;99.90;;;;;;10366013;28;20166;-54
2021/01/21 17:36:10;;;;;;;5.05;1.00;;;7.80;99.90;;;;;;10364112;28;20042;-54
2021/01/21 17:41:31;;;;;;;1.13;0.20;;;7.90;99.90;;;;;;10362887;28;20112;-54
2021/01/21 17:46:52;;;;;;;1.50;0.60;;;7.90;99.90;;;;;;10360649;28;20044;-52
2021/01/21 17:52:15;;;;;;;0.68;0.40;;;7.80;99.90;;;;;;10362706;28;20128;-52
2021/01/21 17:57:36;;;;;;;4.45;0.40;;;7.80;99.90;;;;;;10367993;28;20209;-52
2021/01/21 18:02:58;;;;;;;0.43;0.20;;;7.90;99.90;;;;;;10366833;28;20056;-52
2021/01/21 18:08:19;;;;;;;2.50;0.22;;;7.90;99.90;;;;;;10368241;28;20556;-53
2021/01/21 18:13:39;;;;;;;0.98;0.55;;;7.90;99.90;;;;;;10366407;28;20091;-52
2021/01/21 18:19:00;;;;;;;1.20;0.30;;;8.00;99.90;;;;;;10359933;28;20030;-54
2021/01/21 18:24:21;;;;;;;0.65;0.10;;;7.90;99.90;;;;;;10367221;28;20049;-54
2021/01/21 18:29:42;;;;;;;3.60;0.38;;;7.80;99.90;;;;;;10363324;28;20053;-54
2021/01/21 18:35:04;;;;;;;1.23;0.30;;;7.50;99.90;;;;;;10348672;28;20707;-52
2021/01/21 18:40:25;;;;;;;0.15;0.05;;;7.40;99.90;;;;;;10366005;28;20175;-52
2021/01/21 18:45:46;;;;;;;0.50;0.20;;;7.20;99.90;;;;;;10368542;28;20045;-52
2021/01/21 18:51:07;;;;;;;0.35;0.03;;;6.90;99.90;;;;;;10366324;28;20457;-54
2021/01/21 18:56:28;;;;;;;0.10;0.00;;;6.60;99.90;;;;;;10363388;28;20080;-54
2021/01/21 19:01:49;;;;;;;0.10;0.00;;;6.40;99.90;;;;;;10366345;28;20038;-52
2021/01/21 19:07:10;;;;;;;1.08;0.20;;;6.30;99.90;;;;;;10363112;28;20104;-52
2021/01/21 19:12:31;;;;;;;1.05;0.10;;;6.10;99.90;;;;;;10368192;28;20266;-53
2021/01/21 19:17:52;;;;;;;0.28;0.10;;;6.20;99.90;;;;;;10364335;28;20158;-53
2021/01/21 19:23:13;;;;;;;0.32;0.15;;;6.10;99.90;;;;;;10363538;28;20594;-53
2021/01/21 19:28:34;;;;;;;0.85;0.35;;;6.00;99.90;;;;;;10365491;28;20084;-53
2021/01/21 19:33:55;;;;;;;0.50;0.10;;;5.90;99.90;;;;;;10363089;28;20321;-53
2021/01/21 19:39:16;;;;;;;0.40;0.17;;;6.00;99.90;;;;;;10381848;28;20577;-53
2021/01/21 19:44:38;;;;;;;0.10;0.00;;;5.90;99.90;;;;;;10361090;28;20060;-54
2021/01/21 19:49:59;;;;;;;0.93;0.20;;;5.80;99.90;;;;;;10363138;28;20061;-54
2021/01/21 19:55:20;;;;;;;0.50;0.13;;;5.80;99.90;;;;;;10364849;28;20046;-54
2021/01/21 20:00:42;;;;;;;1.27;0.47;;;5.80;99.90;;;;;;10362512;28;20053;-54
2021/01/21 20:06:15;;;;;;;0.95;0.30;;;5.60;99.90;;;;;;10363585;28;22295;-54
2021/01/21 20:11:36;;;;;;;6.05;0.77;;;5.70;99.90;;;;;;10362182;28;20041;-54
2021/01/21 20:16:57;;;;;;;0.63;0.25;;;5.60;99.90;;;;;;10361453;28;20069;-55
2021/01/21 20:22:18;;;;;;;0.10;0.10;;;5.60;99.90;;;;;;10363762;28;20038;-56
2021/01/21 20:27:40;;;;;;;0.63;0.10;;;5.50;99.90;;;;;;10363526;28;20102;-55
2021/01/21 20:33:01;;;;;;;1.23;0.68;;;5.50;99.90;;;;;;10360980;28;20038;-55
2021/01/21 20:38:22;;;;;;;0.55;0.45;;;5.50;99.90;;;;;;10364342;28;20096;-55
2021/01/21 20:43:42;;;;;;;0.55;0.17;;;5.60;99.90;;;;;;10360852;28;20057;-55
2021/01/21 20:49:04;;;;;;;0.63;0.40;;;5.60;99.90;;;;;;10361104;28;20137;-55
2021/01/21 20:54:25;;;;;;;2.67;0.32;;;5.70;99.90;;;;;;10360823;28;20065;-55
2021/01/21 20:59:45;;;;;;;0.50;0.35;;;5.70;99.90;;;;;;10360507;28;20034;-55
2021/01/21 21:05:08;;;;;;;3.90;0.95;;;5.70;99.90;;;;;;10363746;28;20038;-55
2021/01/21 21:10:30;;;;;;;1.17;0.40;;;5.60;99.90;;;;;;10362165;28;20483;-55
2021/01/21 21:15:51;;;;;;;1.63;0.45;;;5.60;99.90;;;;;;10359971;28;20048;-55
2021/01/21 21:21:12;;;;;;;1.35;0.20;;;5.50;99.90;;;;;;10366762;28;20065;-55
2021/01/21 21:26:33;;;;;;;1.25;0.20;;;5.40;99.90;;;;;;10362280;28;20041;-55
2021/01/21 21:31:54;;;;;;;2.53;0.63;;;5.40;99.90;;;;;;10361877;28;20038;-57
2021/01/21 21:37:15;;;;;;;1.27;0.43;;;5.40;99.90;;;;;;10362000;28;20417;-57
2021/01/21 21:42:36;;;;;;;1.08;0.25;;;5.30;99.90;;;;;;10362780;28;20046;-55
2021/01/21 21:47:57;;;;;;;7.30;1.67;;;5.30;99.90;;;;;;10363919;28;20045;-55
2021/01/21 21:53:18;;;;;;;1.23;0.30;;;5.30;99.90;;;;;;10361578;28;20049;-55
2021/01/21 21:58:39;;;;;;;2.17;0.10;;;5.30;99.90;;;;;;10363067;28;20033;-55
2021/01/21 22:04:00;;;;;;;0.20;0.10;;;5.20;99.90;;;;;;10359180;28;20041;-55
2021/01/21 22:09:21;;;;;;;0.70;0.08;;;5.10;99.90;;;;;;10358590;28;20061;-55
2021/01/21 22:14:42;;;;;;;0.30;0.30;;;4.90;99.90;;;;;;10360420;28;20026;-55
2021/01/21 22:20:04;;;;;;;0.22;0.05;;;4.80;99.90;;;;;;10357220;28;20232;-55
2021/01/21 22:25:25;;;;;;;1.25;0.20;;;4.80;99.90;;;;;;10358609;28;20042;-55
2021/01/21 22:30:46;;;;;;;0.50;0.20;;;4.80;99.90;;;;;;10358933;28;20259;-56
2021/01/21 22:36:08;;;;;;;2.40;0.30;;;4.80;99.90;;;;;;10357673;28;20068;-58
2021/01/21 22:41:28;;;;;;;2.10;0.52;;;4.80;99.90;;;;;;10364188;28;20073;-55
2021/01/21 22:46:49;;;;;;;1.10;0.30;;;4.80;99.90;;;;;;10368611;28;20524;-55
2021/01/21 22:52:10;;;;;;;0.43;0.20;;;4.80;99.90;;;;;;10368878;28;20052;-55
2021/01/21 22:57:31;;;;;;;2.42;0.98;;;4.70;99.90;;;;;;10365512;28;20474;-55
2021/01/21 23:02:52;;;;;;;3.65;0.45;;;4.60;99.90;;;;;;10367345;28;20041;-55
2021/01/21 23:08:13;;;;;;;4.40;0.85;;;4.60;99.90;;;;;;10371093;28;20037;-55
2021/01/21 23:13:34;;;;;;;0.43;0.20;;;4.60;99.90;;;;;;10368854;28;20040;-55
2021/01/21 23:18:55;;;;;;;0.00;0.00;;;4.60;99.90;;;;;;10365792;28;20041;-55
2021/01/21 23:24:17;;;;;;;0.52;0.20;;;4.60;99.90;;;;;;10366478;28;20526;-56
2021/01/21 23:29:38;;;;;;;0.57;0.20;;;4.60;99.90;;;;;;10364654;28;20049;-56
2021/01/21 23:35:00;;;;;;;0.43;0.20;;;4.50;99.90;;;;;;10365950;28;20156;-56
2021/01/21 23:40:20;;;;;;;2.35;0.70;;;4.50;99.90;;;;;;10363980;28;20420;-55
2021/01/21 23:45:42;;;;;;;2.65;0.90;;;4.60;99.90;;;;;;10363889;28;20114;-55
2021/01/21 23:51:03;;;;;;;1.63;0.65;;;4.70;99.90;;;;;;10376849;28;20096;-55
2021/01/21 23:56:24;;;;;;;1.15;0.50;;;4.60;99.90;;;;;;10364732;28;20095;-56
